createdAt,value
2022-10-26T00:01:14.663Z,9.80
2022-10-26T00:04:00.468Z,9.90
2022-10-26T00:06:46.314Z,9.90
2022-10-26T00:09:33.704Z,9.90
2022-10-26T00:12:21.548Z,9.90
2022-10-26T00:15:12.257Z,9.70
2022-10-26T00:17:58.097Z,9.60
2022-10-26T00:20:43.609Z,9.70
2022-10-26T00:23:29.290Z,9.80
2022-10-26T00:26:15.394Z,9.70
2022-10-26T00:29:00.589Z,9.70
2022-10-26T00:31:48.782Z,9.70
2022-10-26T00:34:34.286Z,9.70
2022-10-26T00:37:19.650Z,9.80
2022-10-26T00:40:05.321Z,9.70
2022-10-26T00:42:52.963Z,9.80
2022-10-26T00:45:38.428Z,9.80
2022-10-26T00:48:38.298Z,9.60
2022-10-26T00:51:34.706Z,9.40
2022-10-26T00:54:20.874Z,9.30
2022-10-26T00:57:06.870Z,9.20
2022-10-26T00:59:54.722Z,9.10
2022-10-26T01:02:42.919Z,9.20
2022-10-26T01:05:31.805Z,9.10
2022-10-26T01:08:18.314Z,9.00
2022-10-26T01:11:04.163Z,8.90
2022-10-26T01:13:52.508Z,9.00
2022-10-26T01:16:50.982Z,8.90
2022-10-26T01:20:04.401Z,8.80
2022-10-26T01:22:58.391Z,8.80
2022-10-26T01:25:43.613Z,8.80
2022-10-26T01:29:01.770Z,8.70
2022-10-26T01:32:04.879Z,8.80
2022-10-26T01:35:03.647Z,8.60
2022-10-26T01:38:24.091Z,8.60
2022-10-26T01:41:15.835Z,8.60
2022-10-26T01:44:09.367Z,8.60
2022-10-26T01:46:58.059Z,8.50
2022-10-26T01:49:58.047Z,8.50
2022-10-26T01:52:43.509Z,8.50
2022-10-26T01:55:44.754Z,8.50
2022-10-26T01:58:48.822Z,8.50
2022-10-26T02:01:50.839Z,8.40
2022-10-26T02:04:58.752Z,8.40
2022-10-26T02:08:05.050Z,8.40
2022-10-26T02:11:32.602Z,8.40
2022-10-26T02:15:03.365Z,8.40
2022-10-26T02:18:14.476Z,8.30
2022-10-26T02:21:06.728Z,8.40
2022-10-26T02:23:55.597Z,8.30
2022-10-26T02:26:46.484Z,8.30
2022-10-26T02:29:33.294Z,8.30
2022-10-26T02:32:21.048Z,8.30
2022-10-26T02:35:07.139Z,8.20
2022-10-26T02:37:54.113Z,8.30
2022-10-26T02:40:39.872Z,8.30
2022-10-26T02:43:26.476Z,8.10
2022-10-26T02:46:16.990Z,8.20
2022-10-26T02:49:02.697Z,8.20
2022-10-26T02:52:21.984Z,8.10
2022-10-26T02:55:36.809Z,8.20
2022-10-26T02:58:35.213Z,8.20
2022-10-26T03:01:23.734Z,8.10
2022-10-26T03:04:11.707Z,8.20
2022-10-26T03:06:57.926Z,8.20
2022-10-26T03:09:46.021Z,8.10
2022-10-26T03:12:31.555Z,8.10
2022-10-26T03:15:17.165Z,8.10
2022-10-26T03:18:02.702Z,8.00
2022-10-26T03:20:48.231Z,8.10
2022-10-26T03:23:33.543Z,8.10
2022-10-26T03:26:19.524Z,8.10
2022-10-26T03:29:05.092Z,8.00
2022-10-26T03:31:54.168Z,8.10
2022-10-26T03:34:41.538Z,8.00
2022-10-26T03:37:27.322Z,8.10
2022-10-26T03:40:13.332Z,8.00
2022-10-26T03:42:58.710Z,8.10
2022-10-26T03:45:46.914Z,8.00
2022-10-26T03:48:32.183Z,8.00
2022-10-26T03:51:17.796Z,8.10
2022-10-26T03:54:06.960Z,8.00
2022-10-26T03:56:55.114Z,8.00
2022-10-26T03:59:41.379Z,8.00
2022-10-26T04:02:26.888Z,8.00
2022-10-26T04:05:16.542Z,8.00
2022-10-26T04:08:03.264Z,8.00
2022-10-26T04:10:51.312Z,8.00
2022-10-26T04:13:39.119Z,7.90
2022-10-26T04:16:26.517Z,7.90
2022-10-26T04:19:15.871Z,8.00
2022-10-26T04:22:00.969Z,8.00
2022-10-26T04:24:51.405Z,7.90
2022-10-26T04:27:38.889Z,7.90
2022-10-26T04:30:26.798Z,7.90
2022-10-26T04:33:12.137Z,7.90
2022-10-26T04:36:03.417Z,7.90
2022-10-26T04:38:49.231Z,7.80
2022-10-26T04:41:34.657Z,7.90
2022-10-26T04:44:20.293Z,7.90
2022-10-26T04:47:08.199Z,7.80
2022-10-26T04:49:53.453Z,7.90
2022-10-26T04:52:41.537Z,7.80
2022-10-26T04:55:27.211Z,7.80
2022-10-26T04:58:12.693Z,7.80
2022-10-26T05:00:58.106Z,7.90
2022-10-26T05:03:43.457Z,7.90
2022-10-26T05:06:30.229Z,7.90
2022-10-26T05:09:15.637Z,7.80
2022-10-26T05:12:01.187Z,7.80
2022-10-26T05:14:48.460Z,7.90
2022-10-26T05:17:36.852Z,7.80
2022-10-26T05:20:28.892Z,7.90
2022-10-26T05:23:18.365Z,7.90
2022-10-26T05:26:04.659Z,7.90
2022-10-26T05:28:54.028Z,7.80
2022-10-26T05:31:39.708Z,7.80
2022-10-26T05:34:25.085Z,7.80
2022-10-26T05:37:10.433Z,7.80
2022-10-26T05:39:55.899Z,7.80
2022-10-26T05:42:41.347Z,7.80
2022-10-26T05:45:26.917Z,7.70
2022-10-26T05:48:12.540Z,7.80
2022-10-26T05:51:02.812Z,7.70
2022-10-26T05:53:48.620Z,7.80
2022-10-26T05:56:38.698Z,7.70
2022-10-26T05:59:27.871Z,7.80
2022-10-26T06:02:27.875Z,7.80
2022-10-26T06:05:22.826Z,7.90
2022-10-26T06:08:12.887Z,7.70
2022-10-26T06:10:59.607Z,7.70
2022-10-26T06:13:45.371Z,7.90
2022-10-26T06:16:55.335Z,7.80
2022-10-26T06:19:47.450Z,7.90
2022-10-26T06:22:59.166Z,7.90
2022-10-26T06:26:22.546Z,8.00
2022-10-26T06:29:36.344Z,8.10
2022-10-26T06:32:25.540Z,8.10
2022-10-26T06:35:38.865Z,8.00
2022-10-26T06:38:28.412Z,8.10
2022-10-26T06:41:15.519Z,8.20
2022-10-26T06:44:04.050Z,8.20
2022-10-26T06:46:53.241Z,8.20
2022-10-26T06:49:48.285Z,8.10
2022-10-26T06:53:05.940Z,8.10
2022-10-26T06:55:52.879Z,8.10
2022-10-26T06:58:40.238Z,8.10
2022-10-26T07:01:30.994Z,8.20
2022-10-26T07:04:16.387Z,8.30
2022-10-26T07:07:02.060Z,8.20
2022-10-26T07:09:51.742Z,8.30
2022-10-26T07:12:37.666Z,8.40
2022-10-26T07:15:23.561Z,8.30
2022-10-26T07:18:09.465Z,8.40
2022-10-26T07:20:54.966Z,8.40
2022-10-26T07:23:40.374Z,8.30
2022-10-26T07:26:27.367Z,8.40
2022-10-26T07:29:14.016Z,8.50
2022-10-26T07:31:59.510Z,8.50
2022-10-26T07:34:47.483Z,8.50
2022-10-26T07:37:32.607Z,8.60
2022-10-26T07:40:18.211Z,8.60
2022-10-26T07:43:07.221Z,8.70
2022-10-26T07:45:53.100Z,8.70
2022-10-26T07:48:39.626Z,8.70
2022-10-26T07:51:25.764Z,8.80
2022-10-26T07:54:11.693Z,8.80
2022-10-26T07:56:59.496Z,8.90
2022-10-26T07:59:45.147Z,8.80
2022-10-26T08:02:35.728Z,8.90
2022-10-26T08:05:23.892Z,8.80
2022-10-26T08:08:09.685Z,8.80
2022-10-26T08:10:55.072Z,9.00
2022-10-26T08:13:40.787Z,9.10
2022-10-26T08:16:26.584Z,9.00
2022-10-26T08:19:11.916Z,9.00
2022-10-26T08:21:57.697Z,9.00
2022-10-26T08:24:46.909Z,9.00
2022-10-26T08:27:35.388Z,9.10
2022-10-26T08:30:21.334Z,9.20
2022-10-26T08:33:09.684Z,9.20
2022-10-26T08:35:57.254Z,9.20
2022-10-26T08:38:42.592Z,9.30
2022-10-26T08:41:46.724Z,9.40
2022-10-26T08:44:44.130Z,9.40
2022-10-26T08:47:43.227Z,9.50
2022-10-26T08:50:33.223Z,9.60
2022-10-26T08:53:18.449Z,9.50
2022-10-26T08:56:43.953Z,9.50
2022-10-26T08:59:54.151Z,9.60
2022-10-26T09:02:41.943Z,9.70
2022-10-26T09:05:38.910Z,9.80
2022-10-26T09:08:50.133Z,9.80
2022-10-26T09:11:38.774Z,10.00
2022-10-26T09:15:02.473Z,10.00
2022-10-26T09:22:21.052Z,10.20
2022-10-26T09:25:19.376Z,10.30
2022-10-26T09:28:06.055Z,10.30
2022-10-26T09:30:58.090Z,10.40
2022-10-26T09:33:43.448Z,10.60
2022-10-26T09:36:28.974Z,10.60
2022-10-26T09:39:42.307Z,10.60
2022-10-26T09:42:46.582Z,10.80
2022-10-26T09:45:58.128Z,10.90
2022-10-26T09:48:53.694Z,11.00
2022-10-26T09:51:42.438Z,11.20
2022-10-26T09:54:27.778Z,11.20
2022-10-26T09:57:19.995Z,11.40
2022-10-26T10:00:05.577Z,11.40
2022-10-26T10:02:56.964Z,11.60
2022-10-26T10:05:57.687Z,11.80
2022-10-26T10:08:43.516Z,11.80
2022-10-26T10:11:43.204Z,11.80
2022-10-26T10:14:36.091Z,12.10
2022-10-26T10:17:24.939Z,12.30
2022-10-26T10:20:22.935Z,12.30
2022-10-26T10:23:31.734Z,12.50
2022-10-26T10:26:17.010Z,12.50
2022-10-26T10:29:03.795Z,12.70
2022-10-26T10:31:56.949Z,12.80
2022-10-26T10:34:43.057Z,12.90
2022-10-26T10:37:44.295Z,13.10
2022-10-26T10:40:31.520Z,13.20
2022-10-26T10:43:17.461Z,13.30
2022-10-26T10:46:05.262Z,13.40
2022-10-26T10:49:05.720Z,13.50
2022-10-26T10:51:51.569Z,13.80
2022-10-26T10:54:41.744Z,13.90
2022-10-26T10:57:39.540Z,14.00
2022-10-26T11:00:25.942Z,14.00
2022-10-26T11:03:43.920Z,14.30
2022-10-26T11:06:31.249Z,14.30
2022-10-26T11:09:22.310Z,14.30
2022-10-26T11:12:15.780Z,14.40
2022-10-26T11:15:07.365Z,14.40
2022-10-26T11:18:22.116Z,14.50
2022-10-26T11:21:36.900Z,14.50
2022-10-26T11:24:44.894Z,14.60
2022-10-26T11:27:33.199Z,14.70
2022-10-26T11:30:20.964Z,14.80
2022-10-26T11:33:19.455Z,14.80
2022-10-26T11:36:11.791Z,14.90
2022-10-26T11:39:21.096Z,15.00
2022-10-26T11:42:32.607Z,15.00
2022-10-26T11:45:31.450Z,15.10
2022-10-26T11:48:28.441Z,15.10
2022-10-26T11:51:30.068Z,15.20
2022-10-26T11:54:24.813Z,15.20
2022-10-26T11:57:11.289Z,15.30
2022-10-26T12:00:17.152Z,15.30
2022-10-26T12:03:18.745Z,15.30
2022-10-26T12:06:04.551Z,15.40
2022-10-26T12:09:10.200Z,15.40
2022-10-26T12:12:01.551Z,15.50
2022-10-26T12:15:13.240Z,15.50
2022-10-26T12:18:26.823Z,15.50
2022-10-26T12:21:17.992Z,15.60
2022-10-26T12:24:26.511Z,15.70
2022-10-26T12:27:33.699Z,15.70
2022-10-26T12:30:19.437Z,15.70
2022-10-26T12:33:28.877Z,15.80
2022-10-26T12:36:48.905Z,16.00
2022-10-26T12:39:36.243Z,16.40
2022-10-26T12:42:24.573Z,17.10
2022-10-26T12:45:21.034Z,19.20
2022-10-26T12:48:38.126Z,26.60
2022-10-26T12:51:27.336Z,30.40
2022-10-26T12:54:45.814Z,32.90
2022-10-26T12:57:38.930Z,32.60
2022-10-26T13:00:26.917Z,27.90
2022-10-26T13:03:36.204Z,27.10
2022-10-26T13:06:39.735Z,26.80
2022-10-26T13:09:29.719Z,29.20
2022-10-26T13:12:15.150Z,27.00
2022-10-26T13:15:31.114Z,28.80
2022-10-26T13:18:19.035Z,29.00
2022-10-26T13:21:14.940Z,25.90
2022-10-26T13:24:08.204Z,25.50
2022-10-26T13:27:05.590Z,25.70
2022-10-26T13:30:03.406Z,24.00
2022-10-26T13:32:57.389Z,22.00
2022-10-26T13:35:43.832Z,20.80
2022-10-26T13:38:33.994Z,19.80
2022-10-26T13:41:38.714Z,19.20
2022-10-26T13:44:42.243Z,18.70
2022-10-26T13:47:41.533Z,18.20
2022-10-26T13:50:32.565Z,17.90
2022-10-26T13:53:37.587Z,17.70
2022-10-26T13:56:32.324Z,17.50
2022-10-26T14:02:15.779Z,17.10
2022-10-26T14:05:04.094Z,17.00
2022-10-26T14:07:58.857Z,16.90
2022-10-26T14:10:54.386Z,16.80
2022-10-26T14:13:42.569Z,16.70
2022-10-26T14:16:32.157Z,16.70
2022-10-26T14:19:24.468Z,16.50
2022-10-26T14:22:23.135Z,16.50
2022-10-26T14:25:35.946Z,16.40
2022-10-26T14:28:51.615Z,16.40
2022-10-26T14:31:38.581Z,16.30
2022-10-26T14:34:24.315Z,16.20
2022-10-26T14:37:11.575Z,16.20
2022-10-26T14:39:57.214Z,16.10
2022-10-26T14:42:50.325Z,15.90
2022-10-26T14:45:54.367Z,15.80
2022-10-26T14:48:50.296Z,15.80
2022-10-26T14:51:38.594Z,15.70
2022-10-26T14:54:28.977Z,15.60
2022-10-26T14:57:35.289Z,15.50
2022-10-26T15:00:25.350Z,15.50
2022-10-26T15:03:18.769Z,15.40
2022-10-26T15:06:28.999Z,15.40
2022-10-26T15:09:46.341Z,15.40
2022-10-26T15:12:36.658Z,15.40
2022-10-26T15:15:29.178Z,15.30
2022-10-26T15:18:23.268Z,15.20
2022-10-26T15:21:27.851Z,15.30
2022-10-26T15:24:36.106Z,15.30
2022-10-26T15:27:25.762Z,15.30
2022-10-26T15:30:25.109Z,15.30
2022-10-26T15:33:27.786Z,15.20
2022-10-26T15:36:16.877Z,15.30
2022-10-26T15:39:02.797Z,15.20
2022-10-26T15:41:52.447Z,15.20
2022-10-26T15:44:37.739Z,15.10
2022-10-26T15:47:30.515Z,15.00
2022-10-26T15:50:19.519Z,14.70
2022-10-26T15:53:17.997Z,14.60
2022-10-26T15:56:11.085Z,14.40
2022-10-26T15:58:57.897Z,14.30
2022-10-26T16:01:46.163Z,14.10
2022-10-26T16:04:36.315Z,14.00
2022-10-26T16:07:25.853Z,13.90
2022-10-26T16:10:25.204Z,13.80
2022-10-26T16:13:14.781Z,13.70
2022-10-26T16:16:03.348Z,13.70
2022-10-26T16:19:11.748Z,13.60
2022-10-26T16:22:02.003Z,13.50
2022-10-26T16:24:47.718Z,13.60
2022-10-26T16:27:33.064Z,13.60
2022-10-26T16:30:19.611Z,13.60
2022-10-26T16:33:05.020Z,13.70
2022-10-26T16:36:00.927Z,13.70
2022-10-26T16:38:46.585Z,13.70
2022-10-26T16:41:32.150Z,13.70
2022-10-26T16:44:17.465Z,13.80
2022-10-26T16:47:02.806Z,13.80
2022-10-26T16:49:48.230Z,13.80
2022-10-26T16:52:39.794Z,13.80
2022-10-26T16:55:25.609Z,13.80
2022-10-26T16:58:10.953Z,13.80
2022-10-26T17:00:56.653Z,13.80
2022-10-26T17:03:41.918Z,13.80
2022-10-26T17:06:27.627Z,13.80
2022-10-26T17:09:13.071Z,13.90
2022-10-26T17:12:01.950Z,13.90
2022-10-26T17:14:50.422Z,14.00
2022-10-26T17:17:38.231Z,14.00
2022-10-26T17:20:25.726Z,14.10
2022-10-26T17:23:11.071Z,14.10
2022-10-26T17:26:01.866Z,14.20
2022-10-26T17:28:52.281Z,14.20
2022-10-26T17:31:37.701Z,14.20
2022-10-26T17:34:25.657Z,14.30
2022-10-26T17:37:10.977Z,14.30
2022-10-26T17:39:56.254Z,14.20
2022-10-26T17:42:41.743Z,14.20
2022-10-26T17:45:27.405Z,14.20
2022-10-26T17:48:15.242Z,14.20
2022-10-26T17:51:06.286Z,14.20
2022-10-26T17:53:52.433Z,14.20
2022-10-26T17:56:47.031Z,14.20
2022-10-26T17:59:32.287Z,14.20
2022-10-26T18:02:19.839Z,14.20
2022-10-26T18:05:07.616Z,14.20
2022-10-26T18:07:53.375Z,14.30
2022-10-26T18:10:38.891Z,14.30
2022-10-26T18:13:28.729Z,14.30
2022-10-26T18:16:22.036Z,14.30
2022-10-26T18:19:07.763Z,14.40
2022-10-26T18:21:53.299Z,14.40
2022-10-26T18:24:39.167Z,14.40
2022-10-26T18:27:24.911Z,14.50
2022-10-26T18:30:13.509Z,14.50
2022-10-26T18:32:58.905Z,14.50
2022-10-26T18:35:46.310Z,14.50
2022-10-26T18:38:35.104Z,14.50
2022-10-26T18:41:22.169Z,14.50
2022-10-26T18:44:09.434Z,14.60
2022-10-26T18:46:55.760Z,14.60
2022-10-26T18:49:41.943Z,14.60
2022-10-26T18:52:28.192Z,14.70
2022-10-26T18:55:13.465Z,14.70
2022-10-26T18:57:59.149Z,14.70
2022-10-26T19:00:46.977Z,14.70
2022-10-26T19:03:32.744Z,14.70
2022-10-26T19:06:27.464Z,14.60
2022-10-26T19:09:16.282Z,14.60
2022-10-26T19:12:04.761Z,14.50
2022-10-26T19:14:51.494Z,14.50
2022-10-26T19:17:36.750Z,14.50
2022-10-26T19:20:22.084Z,14.50
2022-10-26T19:23:07.441Z,14.40
2022-10-26T19:25:58.998Z,14.40
2022-10-26T19:28:44.926Z,14.20
2022-10-26T19:31:33.739Z,14.10
2022-10-26T19:34:19.876Z,13.90
2022-10-26T19:37:05.602Z,13.80
2022-10-26T19:39:51.549Z,13.60
2022-10-26T19:42:37.055Z,13.50
2022-10-26T19:45:22.584Z,13.30
2022-10-26T19:48:11.141Z,13.20
2022-10-26T19:50:57.672Z,13.10
2022-10-26T19:53:43.187Z,13.00
2022-10-26T19:56:28.733Z,12.80
2022-10-26T19:59:14.239Z,12.70
2022-10-26T20:02:00.455Z,12.60
2022-10-26T20:04:46.922Z,12.60
2022-10-26T20:07:34.874Z,12.50
2022-10-26T20:10:20.607Z,12.40
2022-10-26T20:13:08.626Z,12.40
2022-10-26T20:15:57.209Z,12.40
2022-10-26T20:18:45.944Z,12.30
2022-10-26T20:21:35.336Z,12.30
2022-10-26T20:24:20.666Z,12.20
2022-10-26T20:27:08.039Z,12.20
2022-10-26T20:29:55.683Z,12.20
2022-10-26T20:32:41.170Z,12.10
2022-10-26T20:35:26.976Z,12.00
2022-10-26T20:38:19.842Z,11.90
2022-10-26T20:41:07.980Z,11.90
2022-10-26T20:43:58.033Z,11.90
2022-10-26T20:46:44.229Z,12.00
2022-10-26T20:49:29.989Z,12.30
2022-10-26T20:52:22.079Z,12.40
2022-10-26T20:55:23.184Z,12.50
2022-10-26T20:58:30.081Z,12.40
2022-10-26T21:01:23.738Z,12.60
2022-10-26T21:04:09.216Z,12.70
2022-10-26T21:06:57.208Z,12.80
2022-10-26T21:09:42.831Z,12.90
2022-10-26T21:12:28.100Z,12.90
2022-10-26T21:15:13.895Z,12.90
2022-10-26T21:17:59.432Z,13.00
2022-10-26T21:20:45.037Z,13.20
2022-10-26T21:23:36.289Z,13.10
2022-10-26T21:26:21.898Z,13.00
2022-10-26T21:29:07.445Z,13.10
2022-10-26T21:31:52.853Z,13.00
2022-10-26T21:34:38.055Z,13.00
2022-10-26T21:37:26.563Z,13.10
2022-10-26T21:40:13.255Z,13.00
2022-10-26T21:42:58.531Z,13.00
2022-10-26T21:45:43.713Z,13.00
2022-10-26T21:48:30.607Z,12.90
2022-10-26T21:51:18.646Z,12.90
2022-10-26T21:54:07.057Z,13.00
2022-10-26T21:56:52.535Z,13.00
2022-10-26T21:59:40.934Z,13.00
2022-10-26T22:02:26.342Z,12.90
2022-10-26T22:05:11.731Z,12.90
2022-10-26T22:07:57.102Z,12.80
2022-10-26T22:10:42.721Z,12.80
2022-10-26T22:13:30.819Z,12.70
2022-10-26T22:16:21.580Z,12.70
2022-10-26T22:19:09.863Z,12.80
2022-10-26T22:21:55.336Z,12.70
2022-10-26T22:24:43.025Z,12.70
2022-10-26T22:27:29.586Z,12.70
2022-10-26T22:30:15.068Z,12.80
2022-10-26T22:33:00.892Z,12.70
2022-10-26T22:35:46.650Z,12.70
2022-10-26T22:38:32.599Z,12.60
2022-10-26T22:41:19.595Z,12.50
2022-10-26T22:44:05.341Z,12.60
2022-10-26T22:46:51.138Z,12.60
2022-10-26T22:49:36.445Z,12.70
2022-10-26T22:52:23.042Z,12.60
2022-10-26T22:55:08.632Z,12.50
2022-10-26T22:57:56.860Z,12.50
2022-10-26T23:00:42.188Z,12.50
2022-10-26T23:03:28.529Z,12.50
2022-10-26T23:06:21.501Z,12.50
2022-10-26T23:09:09.593Z,12.50
2022-10-26T23:11:55.138Z,12.50
2022-10-26T23:14:40.570Z,12.50
2022-10-26T23:17:28.216Z,12.40
2022-10-26T23:20:13.566Z,12.40
2022-10-26T23:22:59.768Z,12.50
2022-10-26T23:25:48.417Z,12.50
2022-10-26T23:28:39.307Z,12.50
2022-10-26T23:31:27.309Z,12.50
2022-10-26T23:34:13.084Z,12.40
2022-10-26T23:37:00.577Z,12.40
2022-10-26T23:39:48.124Z,12.40
2022-10-26T23:42:35.606Z,12.30
2022-10-26T23:45:21.372Z,12.30
2022-10-26T23:48:06.900Z,12.30
2022-10-26T23:50:52.536Z,12.30
2022-10-26T23:53:37.927Z,12.20
2022-10-26T23:56:26.328Z,12.20
2022-10-26T23:59:11.811Z,12.20
